createdAt,value
2018-07-20T00:01:12.007Z,101235.83
2018-07-20T00:03:40.332Z,101234.31
2018-07-20T00:06:08.670Z,101233.37
2018-07-20T00:08:36.988Z,101231.59
2018-07-20T00:11:05.369Z,101233.37
2018-07-20T00:13:33.707Z,101229.28
2018-07-20T00:16:02.024Z,101226.20
2018-07-20T00:18:30.329Z,101230.11
2018-07-20T00:20:58.635Z,101225.25
2018-07-20T00:23:26.984Z,101223.97
2018-07-20T00:25:55.329Z,101219.92
2018-07-20T00:28:23.708Z,101217.41
2018-07-20T00:30:52.060Z,101221.35
2018-07-20T00:33:20.404Z,101217.56
2018-07-20T00:35:48.731Z,101218.14
2018-07-20T00:38:17.047Z,101215.83
2018-07-20T00:40:45.373Z,101209.91
2018-07-20T00:43:14.013Z,101207.59
2018-07-20T00:45:42.324Z,101205.69
2018-07-20T00:48:10.647Z,101202.02
2018-07-20T00:50:38.959Z,101202.05
2018-07-20T00:53:07.318Z,101200.69
2018-07-20T00:55:35.644Z,101200.78
2018-07-20T00:58:03.982Z,101194.30
2018-07-20T01:00:32.319Z,101184.83
2018-07-20T01:03:00.670Z,101183.96
2018-07-20T01:05:29.043Z,101180.00
2018-07-20T01:07:57.441Z,101185.63
2018-07-20T01:10:25.788Z,101186.52
2018-07-20T01:12:54.117Z,101182.37
2018-07-20T01:15:22.493Z,101188.55
2018-07-20T01:17:50.817Z,101191.34
2018-07-20T01:20:19.130Z,101185.13
2018-07-20T01:22:47.674Z,101183.21
2018-07-20T01:25:16.130Z,101181.88
2018-07-20T01:27:44.438Z,101185.14
2018-07-20T01:30:12.779Z,101190.62
2018-07-20T01:32:41.084Z,101190.13
2018-07-20T01:35:09.435Z,101191.11
2018-07-20T01:37:37.856Z,101189.16
2018-07-20T01:40:06.165Z,101181.13
2018-07-20T01:42:34.540Z,101182.69
2018-07-20T01:45:02.885Z,101187.37
2018-07-20T01:47:31.232Z,101182.13
2018-07-20T01:49:59.551Z,101181.38
2018-07-20T01:52:27.887Z,101177.49
2018-07-20T01:54:56.233Z,101181.16
2018-07-20T01:57:24.563Z,101183.41
2018-07-20T01:59:52.890Z,101181.57
2018-07-20T02:02:21.200Z,101182.94
2018-07-20T02:04:49.493Z,101185.05
2018-07-20T02:07:17.803Z,101183.23
2018-07-20T02:09:46.131Z,101186.41
2018-07-20T02:12:14.462Z,101183.50
2018-07-20T02:14:42.771Z,101188.92
2018-07-20T02:17:11.098Z,101184.38
2018-07-20T02:19:39.431Z,101182.83
2018-07-20T02:22:07.747Z,101183.12
2018-07-20T02:24:36.065Z,101186.80
2018-07-20T02:27:04.405Z,101188.73
2018-07-20T02:29:32.814Z,101191.15
2018-07-20T02:32:01.100Z,101186.52
2018-07-20T02:34:29.441Z,101180.89
2018-07-20T02:36:57.756Z,101178.86
2018-07-20T02:39:26.105Z,101178.10
2018-07-20T02:41:54.436Z,101179.16
2018-07-20T02:44:22.882Z,101177.31
2018-07-20T02:46:51.205Z,101176.44
2018-07-20T02:49:19.522Z,101170.82
2018-07-20T02:51:47.860Z,101170.15
2018-07-20T02:54:16.196Z,101176.44
2018-07-20T02:56:44.498Z,101176.17
2018-07-20T02:59:12.829Z,101172.84
2018-07-20T03:01:41.184Z,101168.59
2018-07-20T03:04:09.516Z,101163.36
2018-07-20T03:06:37.903Z,101164.14
2018-07-20T03:09:09.444Z,101165.40
2018-07-20T03:11:37.785Z,101166.17
2018-07-20T03:14:06.209Z,101166.48
2018-07-20T03:16:34.546Z,101163.57
2018-07-20T03:19:02.869Z,101159.89
2018-07-20T03:21:31.212Z,101159.88
2018-07-20T03:23:59.563Z,101164.73
2018-07-20T03:26:27.928Z,101164.61
2018-07-20T03:28:56.245Z,101173.20
2018-07-20T03:31:24.588Z,101178.05
2018-07-20T03:33:52.905Z,101177.86
2018-07-20T03:36:21.252Z,101180.57
2018-07-20T03:38:49.588Z,101181.14
2018-07-20T03:41:17.909Z,101183.44
2018-07-20T03:43:46.244Z,101179.97
2018-07-20T03:46:14.560Z,101174.00
2018-07-20T03:48:42.868Z,101173.13
2018-07-20T03:51:11.199Z,101170.52
2018-07-20T03:53:39.560Z,101171.67
2018-07-20T03:56:07.902Z,101168.58
2018-07-20T03:58:36.247Z,101167.42
2018-07-20T04:01:04.628Z,101165.69
2018-07-20T04:03:32.987Z,101162.19
2018-07-20T04:06:01.306Z,101162.49
2018-07-20T04:08:29.623Z,101164.16
2018-07-20T04:10:57.945Z,101159.00
2018-07-20T04:13:26.240Z,101159.60
2018-07-20T04:15:54.576Z,101155.54
2018-07-20T04:18:22.892Z,101155.81
2018-07-20T04:20:51.197Z,101160.27
2018-07-20T04:23:19.560Z,101160.38
2018-07-20T04:25:47.877Z,101154.97
2018-07-20T04:28:16.248Z,101160.47
2018-07-20T04:30:44.583Z,101157.58
2018-07-20T04:33:12.889Z,101159.88
2018-07-20T04:35:41.220Z,101168.51
2018-07-20T04:38:09.542Z,101159.70
2018-07-20T04:40:37.912Z,101156.01
2018-07-20T04:43:06.257Z,101152.43
2018-07-20T04:45:34.580Z,101160.56
2018-07-20T04:48:02.962Z,101159.48
2018-07-20T04:50:31.301Z,101161.20
2018-07-20T04:52:59.649Z,101161.84
2018-07-20T04:55:28.017Z,101174.30
2018-07-20T04:57:56.430Z,101164.12
2018-07-20T05:00:24.877Z,101168.27
2018-07-20T05:02:53.222Z,101161.76
2018-07-20T05:05:21.566Z,101166.39
2018-07-20T05:07:49.904Z,101161.02
2018-07-20T05:10:18.256Z,101156.64
2018-07-20T05:12:46.699Z,101155.27
2018-07-20T05:15:15.044Z,101153.56
2018-07-20T05:17:43.388Z,101155.02
2018-07-20T05:20:11.735Z,101157.47
2018-07-20T05:22:40.076Z,101158.67
2018-07-20T05:25:08.424Z,101154.40
2018-07-20T05:27:36.772Z,101152.10
2018-07-20T05:30:05.665Z,101152.72
2018-07-20T05:32:34.048Z,101152.06
2018-07-20T05:35:02.380Z,101153.66
2018-07-20T05:37:30.701Z,101152.79
2018-07-20T05:39:58.994Z,101145.85
2018-07-20T05:42:27.320Z,101151.77
2018-07-20T05:44:55.687Z,101145.67
2018-07-20T05:47:24.093Z,101145.95
2018-07-20T05:49:52.458Z,101136.25
2018-07-20T05:52:20.800Z,101138.98
2018-07-20T05:54:49.179Z,101143.86
2018-07-20T05:57:17.553Z,101145.28
2018-07-20T05:59:46.126Z,101150.79
2018-07-20T06:02:14.916Z,101143.30
2018-07-20T06:04:43.271Z,101142.48
2018-07-20T06:07:11.630Z,101145.25
2018-07-20T06:09:39.993Z,101143.52
2018-07-20T06:12:08.345Z,101144.05
2018-07-20T06:14:36.710Z,101148.39
2018-07-20T06:17:05.049Z,101150.16
2018-07-20T06:19:33.381Z,101143.13
2018-07-20T06:22:01.724Z,101141.36
2018-07-20T06:24:30.075Z,101141.48
2018-07-20T06:26:58.435Z,101138.84
2018-07-20T06:29:26.768Z,101133.48
2018-07-20T06:31:55.106Z,101133.23
2018-07-20T06:34:23.445Z,101133.39
2018-07-20T06:36:51.775Z,101123.86
2018-07-20T06:39:20.104Z,101122.02
2018-07-20T06:41:48.479Z,101116.86
2018-07-20T06:44:16.828Z,101124.00
2018-07-20T06:46:45.186Z,101123.58
2018-07-20T06:49:13.538Z,101122.77
2018-07-20T06:51:41.878Z,101127.89
2018-07-20T06:54:10.195Z,101122.47
2018-07-20T06:56:38.526Z,101119.67
2018-07-20T06:59:06.880Z,101118.81
2018-07-20T07:01:35.208Z,101123.48
2018-07-20T07:04:03.627Z,101128.25
2018-07-20T07:06:31.965Z,101124.75
2018-07-20T07:09:00.379Z,101123.36
2018-07-20T07:11:28.724Z,101119.72
2018-07-20T07:13:57.071Z,101124.41
2018-07-20T07:16:25.404Z,101126.13
2018-07-20T07:18:53.731Z,101124.28
2018-07-20T07:21:22.136Z,101130.66
2018-07-20T07:23:50.513Z,101127.38
2018-07-20T07:26:18.829Z,101136.54
2018-07-20T07:28:47.173Z,101140.30
2018-07-20T07:31:15.519Z,101142.61
2018-07-20T07:33:43.864Z,101139.47
2018-07-20T07:36:12.223Z,101139.98
2018-07-20T07:38:40.585Z,101138.86
2018-07-20T07:41:09.079Z,101137.31
2018-07-20T07:43:37.415Z,101133.46
2018-07-20T07:46:05.802Z,101127.02
2018-07-20T07:48:34.125Z,101127.27
2018-07-20T07:51:02.436Z,101134.87
2018-07-20T07:53:30.855Z,101129.24
2018-07-20T07:55:59.179Z,101128.86
2018-07-20T07:58:27.521Z,101127.53
2018-07-20T08:00:55.838Z,101123.84
2018-07-20T08:03:24.177Z,101126.16
2018-07-20T08:05:52.519Z,101128.41
2018-07-20T08:08:20.854Z,101122.45
2018-07-20T08:10:49.176Z,101123.27
2018-07-20T08:13:17.497Z,101116.59
2018-07-20T08:15:45.885Z,101122.48
2018-07-20T08:18:14.217Z,101116.75
2018-07-20T08:20:42.618Z,101116.59
2018-07-20T08:23:10.923Z,101112.87
2018-07-20T08:25:39.272Z,101108.70
2018-07-20T08:28:07.610Z,101105.61
2018-07-20T08:30:35.936Z,101101.64
2018-07-20T08:33:04.277Z,101110.56
2018-07-20T08:35:32.625Z,101112.15
2018-07-20T08:38:00.937Z,101108.53
2018-07-20T08:40:29.366Z,101107.82
2018-07-20T08:42:57.793Z,101105.44
2018-07-20T08:45:26.171Z,101102.89
2018-07-20T08:47:54.584Z,101096.85
2018-07-20T08:50:22.915Z,101100.67
2018-07-20T08:52:51.234Z,101098.81
2018-07-20T08:55:19.528Z,101104.75
2018-07-20T08:57:47.991Z,101104.33
2018-07-20T09:00:16.305Z,101106.47
2018-07-20T09:02:44.638Z,101098.95
2018-07-20T09:05:12.944Z,101090.19
2018-07-20T09:07:41.284Z,101095.34
2018-07-20T09:10:09.905Z,101085.58
2018-07-20T09:12:38.228Z,101086.67
2018-07-20T09:15:06.568Z,101082.62
2018-07-20T09:17:34.901Z,101081.58
2018-07-20T09:20:03.233Z,101090.27
2018-07-20T09:22:31.556Z,101085.85
2018-07-20T09:24:59.874Z,101084.19
2018-07-20T09:27:28.212Z,101084.97
2018-07-20T09:29:56.527Z,101085.16
2018-07-20T09:32:24.851Z,101086.88
2018-07-20T09:34:53.176Z,101080.41
2018-07-20T09:37:21.495Z,101088.13
2018-07-20T09:39:49.837Z,101082.44
2018-07-20T09:42:18.207Z,101074.22
2018-07-20T09:44:46.560Z,101071.69
2018-07-20T09:47:14.885Z,101075.98
2018-07-20T09:49:43.251Z,101064.95
2018-07-20T09:52:11.669Z,101064.58
2018-07-20T09:54:40.005Z,101074.72
2018-07-20T09:57:08.932Z,101069.11
2018-07-20T09:59:37.281Z,101069.62
2018-07-20T10:02:05.780Z,101067.22
2018-07-20T10:04:34.131Z,101069.23
2018-07-20T10:07:02.449Z,101062.38
2018-07-20T10:09:30.788Z,101062.59
2018-07-20T10:11:59.166Z,101054.17
2018-07-20T10:14:27.516Z,101062.31
2018-07-20T10:16:55.863Z,101055.85
2018-07-20T10:19:24.202Z,101058.58
2018-07-20T10:21:52.515Z,101059.50
2018-07-20T10:24:20.823Z,101061.47
2018-07-20T10:26:49.154Z,101056.59
2018-07-20T10:29:17.512Z,101054.39
2018-07-20T10:31:45.851Z,101049.14
2018-07-20T10:34:14.165Z,101046.99
2018-07-20T10:36:42.519Z,101043.72
2018-07-20T10:39:11.320Z,101038.52
2018-07-20T10:41:39.655Z,101041.42
2018-07-20T10:44:07.990Z,101036.22
2018-07-20T10:46:36.397Z,101040.64
2018-07-20T10:49:04.980Z,101038.66
2018-07-20T10:51:33.307Z,101031.81
2018-07-20T10:54:01.610Z,101040.81
2018-07-20T10:56:29.910Z,101031.66
2018-07-20T10:58:58.222Z,101034.98
2018-07-20T11:01:26.632Z,101028.26
2018-07-20T11:03:55.022Z,101033.13
2018-07-20T11:06:23.348Z,101031.42
2018-07-20T11:08:51.633Z,101031.73
2018-07-20T11:11:19.938Z,101026.60
2018-07-20T11:13:48.277Z,101029.13
2018-07-20T11:16:16.620Z,101023.86
2018-07-20T11:18:44.946Z,101022.69
2018-07-20T11:21:13.272Z,101026.56
2018-07-20T11:23:41.589Z,101029.75
2018-07-20T11:26:09.999Z,101029.05
2018-07-20T11:28:38.337Z,101032.05
2018-07-20T11:31:06.655Z,101032.37
2018-07-20T11:33:34.992Z,101029.78
2018-07-20T11:36:03.381Z,101023.94
2018-07-20T11:38:31.690Z,101027.31
2018-07-20T11:41:00.036Z,101030.48
2018-07-20T11:43:28.369Z,101026.62
2018-07-20T11:45:56.725Z,101020.09
2018-07-20T11:48:25.855Z,101019.23
2018-07-20T11:50:54.200Z,101020.37
2018-07-20T11:53:22.508Z,101015.59
2018-07-20T11:55:50.898Z,101014.31
2018-07-20T11:58:19.186Z,101015.15
2018-07-20T12:00:47.510Z,101013.61
2018-07-20T12:03:15.831Z,101010.32
2018-07-20T12:05:44.153Z,101012.78
2018-07-20T12:08:12.468Z,101012.13
2018-07-20T12:10:40.846Z,101006.95
2018-07-20T12:13:09.202Z,100996.77
2018-07-20T12:15:37.530Z,101007.33
2018-07-20T12:18:05.965Z,101002.13
2018-07-20T12:20:34.268Z,101001.83
2018-07-20T12:23:02.600Z,100994.91
2018-07-20T12:25:30.947Z,101001.13
2018-07-20T12:27:59.271Z,101006.29
2018-07-20T12:30:27.620Z,100998.20
2018-07-20T12:32:55.953Z,100999.77
2018-07-20T12:35:24.303Z,100991.12
2018-07-20T12:37:52.620Z,100994.13
2018-07-20T12:40:21.011Z,100988.08
2018-07-20T12:42:49.364Z,100981.53
2018-07-20T12:45:17.693Z,100989.13
2018-07-20T12:47:46.068Z,100986.36
2018-07-20T12:50:14.456Z,100984.11
2018-07-20T12:52:42.726Z,100981.84
2018-07-20T12:55:11.059Z,100979.09
2018-07-20T12:57:39.379Z,100981.86
2018-07-20T13:00:07.714Z,100983.61
2018-07-20T13:02:36.032Z,100980.33
2018-07-20T13:05:04.724Z,100979.10
2018-07-20T13:07:33.055Z,100979.63
2018-07-20T13:10:01.361Z,100971.88
2018-07-20T13:12:29.691Z,100970.68
2018-07-20T13:14:57.994Z,100975.30
2018-07-20T13:17:26.323Z,100972.91
2018-07-20T13:19:54.642Z,100967.22
2018-07-20T13:22:22.973Z,100965.49
2018-07-20T13:24:51.341Z,100966.35
2018-07-20T13:27:19.665Z,100963.94
2018-07-20T13:29:47.992Z,100963.08
2018-07-20T13:32:16.353Z,100953.77
2018-07-20T13:34:45.746Z,100948.78
2018-07-20T13:37:14.076Z,100948.78
2018-07-20T13:39:42.410Z,100948.11
2018-07-20T13:42:10.744Z,100945.69
2018-07-20T13:44:39.047Z,100943.11
2018-07-20T13:47:07.360Z,100933.91
2018-07-20T13:49:35.687Z,100939.42
2018-07-20T13:52:04.042Z,100931.52
2018-07-20T13:54:32.402Z,100934.43
2018-07-20T13:57:00.716Z,100934.61
2018-07-20T13:59:29.050Z,100923.41
2018-07-20T14:01:57.373Z,100914.28
2018-07-20T14:04:25.694Z,100914.98
2018-07-20T14:06:54.052Z,100908.77
2018-07-20T14:09:22.510Z,100897.75
2018-07-20T14:11:50.851Z,100890.19
2018-07-20T14:14:19.218Z,100893.95
2018-07-20T14:16:47.614Z,100897.39
2018-07-20T14:19:15.922Z,100903.95
2018-07-20T14:21:44.252Z,100897.56
2018-07-20T14:24:12.578Z,100896.02
2018-07-20T14:26:40.915Z,100890.84
2018-07-20T14:29:09.238Z,100887.76
2018-07-20T14:31:37.628Z,100888.27
2018-07-20T14:34:05.997Z,100881.52
2018-07-20T14:36:34.341Z,100880.86
2018-07-20T14:39:02.692Z,100875.86
2018-07-20T14:41:31.010Z,100880.16
2018-07-20T14:43:59.362Z,100873.61
2018-07-20T14:46:27.671Z,100872.75
2018-07-20T14:48:56.013Z,100870.52
2018-07-20T14:51:24.397Z,100873.61
2018-07-20T14:53:52.704Z,100871.90
2018-07-20T14:56:21.029Z,100871.56
2018-07-20T14:58:49.407Z,100870.70
2018-07-20T15:01:17.760Z,100867.77
2018-07-20T15:03:46.077Z,100859.34
2018-07-20T15:06:14.444Z,100861.05
2018-07-20T15:08:42.856Z,100864.31
2018-07-20T15:11:11.219Z,100861.55
2018-07-20T15:13:39.554Z,100869.11
2018-07-20T15:16:07.955Z,100864.63
2018-07-20T15:18:36.320Z,100864.92
2018-07-20T15:21:04.635Z,100858.75
2018-07-20T15:23:33.063Z,100853.23
2018-07-20T15:26:01.351Z,100859.74
2018-07-20T15:28:29.690Z,100852.34
2018-07-20T15:30:58.006Z,100847.72
2018-07-20T15:33:26.376Z,100855.97
2018-07-20T15:35:54.727Z,100848.38
2018-07-20T15:38:23.099Z,100844.95
2018-07-20T15:40:51.437Z,100835.64
2018-07-20T15:43:19.772Z,100845.78
2018-07-20T15:45:52.100Z,100840.43
2018-07-20T15:48:16.455Z,100834.77
2018-07-20T15:50:44.795Z,100829.59
2018-07-20T15:53:39.824Z,100827.69
2018-07-20T15:55:41.557Z,100834.23
2018-07-20T15:58:09.874Z,100831.10
2018-07-20T16:00:38.204Z,100824.06
2018-07-20T16:03:06.657Z,100829.38
2018-07-20T16:05:35.043Z,100831.45
2018-07-20T16:08:03.375Z,100827.83
2018-07-20T16:10:31.702Z,100832.80
2018-07-20T16:13:00.065Z,100828.45
2018-07-20T16:15:28.405Z,100826.22
2018-07-20T16:17:56.740Z,100824.83
2018-07-20T16:20:25.080Z,100818.64
2018-07-20T16:22:53.441Z,100824.83
2018-07-20T16:25:21.764Z,100827.24
2018-07-20T16:27:50.126Z,100818.62
2018-07-20T16:30:18.451Z,100811.38
2018-07-20T16:32:46.768Z,100811.02
2018-07-20T16:35:15.120Z,100813.75
2018-07-20T16:37:43.462Z,100813.41
2018-07-20T16:40:11.824Z,100809.63
2018-07-20T16:42:40.224Z,100806.16
2018-07-20T16:45:08.549Z,100805.14
2018-07-20T16:47:36.868Z,100801.67
2018-07-20T16:50:05.480Z,100811.10
2018-07-20T16:52:33.829Z,100808.33
2018-07-20T16:55:02.176Z,100812.11
2018-07-20T16:57:30.510Z,100808.31
2018-07-20T16:59:58.853Z,100810.89
2018-07-20T17:02:27.200Z,100806.06
2018-07-20T17:04:55.547Z,100805.70
2018-07-20T17:07:23.915Z,100806.03
2018-07-20T17:09:52.234Z,100811.02
2018-07-20T17:12:20.592Z,100806.35
2018-07-20T17:14:48.919Z,100807.73
2018-07-20T17:17:17.360Z,100815.58
2018-07-20T17:19:45.722Z,100813.87
2018-07-20T17:22:14.028Z,100811.77
2018-07-20T17:24:42.396Z,100817.94
2018-07-20T17:27:10.732Z,100821.34
2018-07-20T17:29:39.068Z,100815.50
2018-07-20T17:32:07.442Z,100817.91
2018-07-20T17:34:35.748Z,100825.95
2018-07-20T17:37:04.134Z,100816.27
2018-07-20T17:39:32.449Z,100825.55
2018-07-20T17:42:00.765Z,100822.97
2018-07-20T17:44:29.066Z,100827.75
2018-07-20T17:46:57.379Z,100820.02
2018-07-20T17:49:25.705Z,100822.22
2018-07-20T17:51:54.052Z,100824.42
2018-07-20T17:54:22.370Z,100831.29
2018-07-20T17:56:50.734Z,100824.25
2018-07-20T17:59:19.191Z,100820.95
2018-07-20T18:01:47.524Z,100829.34
2018-07-20T18:04:15.844Z,100832.77
2018-07-20T18:06:44.208Z,100826.90
2018-07-20T18:09:12.584Z,100828.72
2018-07-20T18:11:40.946Z,100828.72
2018-07-20T18:14:09.284Z,100827.48
2018-07-20T18:16:37.596Z,100831.25
2018-07-20T18:19:05.940Z,100827.10
2018-07-20T18:21:34.279Z,100826.55
2018-07-20T18:24:02.612Z,100826.69
2018-07-20T18:26:30.976Z,100826.00
2018-07-20T18:28:59.278Z,100818.03
2018-07-20T18:31:27.671Z,100826.74
2018-07-20T18:33:56.142Z,100823.14
2018-07-20T18:36:24.365Z,100816.86
2018-07-20T18:38:52.797Z,100826.42
2018-07-20T18:41:21.122Z,100824.36
2018-07-20T18:43:49.473Z,100832.84
2018-07-20T18:46:17.830Z,100827.31
2018-07-20T18:48:46.138Z,100827.44
2018-07-20T18:51:14.491Z,100828.25
2018-07-20T18:53:42.837Z,100826.84
2018-07-20T18:56:11.172Z,100834.50
2018-07-20T18:58:39.537Z,100838.06
2018-07-20T19:01:08.001Z,100833.55
2018-07-20T19:03:36.328Z,100829.85
2018-07-20T19:06:04.655Z,100833.40
2018-07-20T19:08:32.984Z,100838.32
2018-07-20T19:11:01.306Z,100838.78
2018-07-20T19:13:29.717Z,100838.86
2018-07-20T19:15:58.044Z,100839.28
2018-07-20T19:18:26.484Z,100837.80
2018-07-20T19:20:54.864Z,100841.91
2018-07-20T19:23:23.282Z,100840.65
2018-07-20T19:25:51.620Z,100840.37
2018-07-20T19:28:19.977Z,100845.06
2018-07-20T19:30:48.318Z,100847.11
2018-07-20T19:33:16.615Z,100858.30
2018-07-20T19:35:44.918Z,100854.28
2018-07-20T19:38:13.322Z,100864.83
2018-07-20T19:40:41.642Z,100864.89
2018-07-20T19:43:10.037Z,100867.41
2018-07-20T19:45:38.394Z,100866.86
2018-07-20T19:48:06.727Z,100872.55
2018-07-20T19:50:35.078Z,100870.22
2018-07-20T19:53:03.463Z,100870.34
2018-07-20T19:55:31.803Z,100869.42
2018-07-20T19:58:00.123Z,100869.62
2018-07-20T20:00:28.454Z,100873.89
2018-07-20T20:02:56.794Z,100872.61
2018-07-20T20:05:25.119Z,100871.64
2018-07-20T20:07:53.455Z,100874.31
2018-07-20T20:10:21.804Z,100881.08
2018-07-20T20:12:50.265Z,100875.53
2018-07-20T20:15:18.657Z,100878.86
2018-07-20T20:17:46.983Z,100875.03
2018-07-20T20:20:15.312Z,100875.69
2018-07-20T20:22:44.697Z,100877.84
2018-07-20T20:25:13.128Z,100881.36
2018-07-20T20:27:41.879Z,100883.28
2018-07-20T20:30:10.228Z,100889.68
2018-07-20T20:32:38.603Z,100890.46
2018-07-20T20:35:06.982Z,100895.11
2018-07-20T20:37:35.329Z,100891.13
2018-07-20T20:40:03.666Z,100893.15
2018-07-20T20:42:31.971Z,100894.28
2018-07-20T20:45:00.298Z,100893.34
2018-07-20T20:47:28.610Z,100895.98
2018-07-20T20:49:56.958Z,100898.63
2018-07-20T20:52:25.334Z,100892.42
2018-07-20T20:54:53.648Z,100897.80
2018-07-20T20:57:21.984Z,100896.50
2018-07-20T20:59:50.307Z,100897.63
2018-07-20T21:02:18.683Z,100897.93
2018-07-20T21:04:47.093Z,100902.30
2018-07-20T21:07:15.416Z,100904.28
2018-07-20T21:09:43.739Z,100900.09
2018-07-20T21:12:12.253Z,100894.03
2018-07-20T21:14:40.390Z,100900.00
2018-07-20T21:17:08.717Z,100907.75
2018-07-20T21:19:37.040Z,100905.28
2018-07-20T21:22:05.393Z,100900.68
2018-07-20T21:24:33.695Z,100905.58
2018-07-20T21:27:02.050Z,100902.25
2018-07-20T21:29:30.356Z,100895.53
2018-07-20T21:31:58.712Z,100903.02
2018-07-20T21:34:27.165Z,100903.64
2018-07-20T21:36:55.474Z,100906.78
2018-07-20T21:39:23.788Z,100900.68
2018-07-20T21:41:52.128Z,100908.02
2018-07-20T21:44:20.461Z,100907.77
2018-07-20T21:46:48.780Z,100911.16
2018-07-20T21:49:17.099Z,100913.03
2018-07-20T21:51:45.436Z,100914.05
2018-07-20T21:54:13.786Z,100909.73
2018-07-20T21:56:42.137Z,100915.95
2018-07-20T21:59:10.495Z,100910.76
2018-07-20T22:01:38.822Z,100913.74
2018-07-20T22:04:07.146Z,100911.77
2018-07-20T22:06:35.515Z,100913.28
2018-07-20T22:09:04.700Z,100918.14
2018-07-20T22:11:33.035Z,100916.81
2018-07-20T22:14:01.363Z,100914.08
2018-07-20T22:16:29.732Z,100917.78
2018-07-20T22:18:58.139Z,100912.51
2018-07-20T22:21:26.469Z,100912.41
2018-07-20T22:23:54.769Z,100912.41
2018-07-20T22:26:23.093Z,100908.92
2018-07-20T22:28:51.431Z,100904.87
2018-07-20T22:31:19.766Z,100905.98
2018-07-20T22:33:48.090Z,100902.14
2018-07-20T22:36:16.462Z,100900.42
2018-07-20T22:38:44.780Z,100899.31
2018-07-20T22:41:13.074Z,100903.91
2018-07-20T22:43:41.404Z,100903.44
2018-07-20T22:46:09.780Z,100903.80
2018-07-20T22:48:38.095Z,100901.17
2018-07-20T22:51:06.471Z,100892.02
2018-07-20T22:53:34.853Z,100893.27
2018-07-20T22:56:03.164Z,100891.91
2018-07-20T22:58:31.477Z,100892.45
2018-07-20T23:00:59.805Z,100885.23
2018-07-20T23:03:28.161Z,100882.14
2018-07-20T23:05:56.500Z,100877.34
2018-07-20T23:08:24.821Z,100874.10
2018-07-20T23:10:53.156Z,100874.24
2018-07-20T23:13:21.502Z,100871.77
2018-07-20T23:15:49.815Z,100872.16
2018-07-20T23:18:18.134Z,100871.04
2018-07-20T23:20:46.479Z,100875.52
2018-07-20T23:23:14.822Z,100874.17
2018-07-20T23:25:43.137Z,100874.28
2018-07-20T23:28:11.473Z,100870.58
2018-07-20T23:30:39.799Z,100871.94
2018-07-20T23:33:08.136Z,100871.94
2018-07-20T23:35:36.458Z,100874.45
2018-07-20T23:38:04.892Z,100878.27
2018-07-20T23:40:33.225Z,100867.98
2018-07-20T23:43:01.556Z,100871.10
2018-07-20T23:45:29.895Z,100877.80
2018-07-20T23:47:58.318Z,100878.30
2018-07-20T23:50:26.651Z,100875.45
2018-07-20T23:52:54.996Z,100876.67
2018-07-20T23:55:23.324Z,100876.92
2018-07-20T23:57:51.689Z,100881.02
